Time;durP1;ratioP1;P1;durP2;ratioP2;P2;SDS_P1;SDS_P2;PMS_P1;PMS_P2;Temp;Humidity;BMP_temperature;BMP_pressure;BME280_temperature;BME280_humidity;BME280_pressure;Samples;Min_cycle;Max_cycle;Signal;HPM_P1;HPM_P2
2023/11/17 00:01:16;;;;;;;7.35;3.03;;;12.30;99.90;;;;;;7387981;19;20066;-76
2023/11/17 00:03:47;;;;;;;6.72;2.70;;;12.20;99.90;;;;;;7385720;19;20015;-76
2023/11/17 00:06:18;;;;;;;10.43;3.15;;;12.10;99.90;;;;;;7408581;19;20014;-76
2023/11/17 00:08:47;;;;;;;6.20;3.25;;;12.20;99.90;;;;;;7385360;19;20402;-76
2023/11/17 00:11:16;;;;;;;8.07;2.78;;;12.10;99.90;;;;;;7387388;19;20078;-76
2023/11/17 00:13:44;;;;;;;5.78;2.58;;;12.30;99.90;;;;;;7387098;19;20007;-77
2023/11/17 00:16:13;;;;;;;6.68;2.30;;;12.20;99.90;;;;;;7387533;19;20020;-76
2023/11/17 00:18:42;;;;;;;6.35;2.75;;;12.10;99.90;;;;;;7402284;19;20014;-77
2023/11/17 00:21:15;;;;;;;8.65;2.28;;;12.10;99.90;;;;;;7402648;19;20009;-78
2023/11/17 00:23:44;;;;;;;10.10;2.60;;;12.00;99.90;;;;;;7382578;19;20087;-77
2023/11/17 00:26:13;;;;;;;6.20;2.13;;;12.10;99.90;;;;;;7381979;19;20027;-77
2023/11/17 00:28:42;;;;;;;5.50;2.25;;;12.00;99.90;;;;;;7382367;19;20094;-77
2023/11/17 00:31:13;;;;;;;5.72;2.08;;;11.90;99.90;;;;;;7382751;19;20339;-77
2023/11/17 00:33:43;;;;;;;3.80;2.30;;;11.90;99.90;;;;;;7403514;19;20028;-77
2023/11/17 00:36:14;;;;;;;5.10;1.80;;;11.90;99.90;;;;;;7381505;19;20045;-76
2023/11/17 00:38:46;;;;;;;3.35;2.00;;;11.90;99.90;;;;;;7380770;19;20003;-76
2023/11/17 00:41:16;;;;;;;7.72;2.22;;;11.70;99.90;;;;;;7380897;19;20420;-76
2023/11/17 00:43:44;;;;;;;5.53;1.98;;;11.80;99.90;;;;;;7381024;19;20250;-76
2023/11/17 00:46:13;;;;;;;5.47;1.98;;;11.90;99.90;;;;;;7380686;19;20012;-76
2023/11/17 00:48:42;;;;;;;15.48;1.90;;;11.90;99.90;;;;;;7395576;19;20016;-76
2023/11/17 00:51:18;;;;;;;2.30;1.73;;;11.80;99.90;;;;;;7400785;19;20010;-76
2023/11/17 00:53:47;;;;;;;6.65;1.95;;;11.80;99.90;;;;;;7381070;19;20249;-76
2023/11/17 00:56:16;;;;;;;6.22;1.60;;;11.90;99.90;;;;;;7382232;19;20003;-76
2023/11/17 00:58:45;;;;;;;5.80;1.95;;;11.90;99.90;;;;;;7382772;19;20025;-77
2023/11/17 01:01:14;;;;;;;3.47;1.67;;;11.90;99.90;;;;;;7382227;19;20021;-76
2023/11/17 01:03:43;;;;;;;7.60;1.70;;;11.90;99.90;;;;;;7390962;19;20370;-76
2023/11/17 01:06:15;;;;;;;2.55;1.30;;;11.90;99.90;;;;;;7402765;19;20058;-76
2023/11/17 01:08:43;;;;;;;6.25;1.50;;;11.90;99.90;;;;;;7380752;19;20007;-76
2023/11/17 01:11:12;;;;;;;3.03;1.35;;;11.90;99.90;;;;;;7380431;19;20024;-76
2023/11/17 01:13:41;;;;;;;13.80;1.73;;;11.90;99.90;;;;;;7380864;19;20163;-76
2023/11/17 01:16:10;;;;;;;4.70;1.33;;;11.90;99.90;;;;;;7380223;19;20013;-76
2023/11/17 01:21:53;;;;;;;2.43;1.43;;;12.00;99.90;;;;;;7275163;19;2004558;-76
2023/11/17 01:24:21;;;;;;;2.47;1.23;;;12.10;99.90;;;;;;7402763;19;20265;-76
2023/11/17 01:26:50;;;;;;;3.50;1.63;;;12.10;99.90;;;;;;7380072;19;20003;-76
2023/11/17 01:29:19;;;;;;;2.72;1.60;;;12.20;99.90;;;;;;7379244;19;20014;-76
2023/11/17 01:31:48;;;;;;;3.03;2.05;;;12.20;99.90;;;;;;7379765;19;20003;-76
2023/11/17 01:34:16;;;;;;;4.88;2.50;;;12.20;99.90;;;;;;7380577;19;20015;-76
2023/11/17 01:36:46;;;;;;;11.98;2.92;;;12.20;99.90;;;;;;7378625;19;20024;-76
2023/11/17 01:39:20;;;;;;;4.22;1.65;;;12.10;99.90;;;;;;7400635;19;20032;-76
2023/11/17 01:41:49;;;;;;;3.47;1.90;;;12.10;99.90;;;;;;7378600;19;20403;-76
2023/11/17 01:44:20;;;;;;;9.10;1.92;;;12.10;99.90;;;;;;7378261;19;20361;-76
2023/11/17 01:46:48;;;;;;;2.53;1.85;;;12.10;99.90;;;;;;7378516;19;20006;-76
2023/11/17 01:49:18;;;;;;;2.45;1.83;;;12.10;99.90;;;;;;7379360;19;20028;-76
2023/11/17 01:51:47;;;;;;;3.75;1.67;;;12.10;99.90;;;;;;7378263;19;20010;-76
2023/11/17 01:54:19;;;;;;;8.02;2.35;;;12.10;99.90;;;;;;7400280;19;20277;-76
2023/11/17 01:56:50;;;;;;;7.57;2.95;;;12.10;99.90;;;;;;7378625;19;20003;-76
2023/11/17 01:59:21;;;;;;;3.13;1.98;;;12.00;99.90;;;;;;7378918;19;20026;-76
2023/11/17 02:01:50;;;;;;;7.67;2.70;;;12.00;99.90;;;;;;7379849;19;19998;-76
2023/11/17 02:04:19;;;;;;;4.18;1.88;;;12.00;99.90;;;;;;7378334;19;20006;-76
2023/11/17 02:06:54;;;;;;;7.72;2.03;;;12.00;99.90;;;;;;7379456;19;20357;-76
2023/11/17 02:09:35;;;;;;;8.60;2.03;;;11.90;99.90;;;;;;7400280;19;20006;-77
2023/11/17 02:12:14;;;;;;;9.83;1.87;;;11.90;99.90;;;;;;7377976;19;20003;-76
2023/11/17 02:14:48;;;;;;;5.97;1.80;;;11.90;99.90;;;;;;7378401;19;20386;-76
2023/11/17 02:17:18;;;;;;;9.70;1.73;;;11.90;99.90;;;;;;7378793;19;20015;-76
2023/11/17 02:19:48;;;;;;;7.22;1.60;;;11.80;99.90;;;;;;7378097;19;20401;-76
2023/11/17 02:22:21;;;;;;;3.55;2.05;;;11.80;99.90;;;;;;7378057;19;20018;-76
2023/11/17 02:25:10;;;;;;;3.20;2.50;;;11.80;99.90;;;;;;7378284;19;20010;-76
2023/11/17 02:27:46;;;;;;;2.70;1.77;;;11.80;99.90;;;;;;7400037;19;20692;-76
2023/11/17 02:30:19;;;;;;;4.88;1.90;;;11.80;99.90;;;;;;7377731;19;19999;-76
2023/11/17 02:32:50;;;;;;;6.47;1.80;;;11.80;99.90;;;;;;7377598;19;20027;-78
2023/11/17 02:35:19;;;;;;;1.90;1.80;;;11.80;99.90;;;;;;7378028;19;20016;-76
2023/11/17 02:37:50;;;;;;;6.88;1.45;;;11.70;99.90;;;;;;7377752;19;20382;-76
2023/11/17 02:40:22;;;;;;;3.63;1.73;;;11.70;99.90;;;;;;7378490;19;20007;-76
2023/11/17 02:42:53;;;;;;;10.63;2.30;;;11.70;99.90;;;;;;7381166;19;20587;-76
2023/11/17 02:45:25;;;;;;;7.50;2.43;;;11.60;99.90;;;;;;7407652;19;20010;-76
2023/11/17 02:47:56;;;;;;;6.97;2.45;;;11.60;99.90;;;;;;7385133;19;20665;-76
2023/11/17 02:50:31;;;;;;;8.40;2.17;;;11.50;99.90;;;;;;7385149;19;19999;-76
2023/11/17 02:53:10;;;;;;;11.18;1.70;;;11.60;99.90;;;;;;7385328;19;20006;-76
2023/11/17 02:55:41;;;;;;;2.83;1.75;;;11.60;99.90;;;;;;7384936;19;20002;-77
2023/11/17 02:58:10;;;;;;;5.60;1.98;;;11.50;99.70;;;;;;7385136;19;20003;-77
2023/11/17 03:00:42;;;;;;;3.47;1.85;;;11.50;99.60;;;;;;7406413;19;20007;-76
2023/11/17 03:03:10;;;;;;;4.53;1.63;;;11.50;99.60;;;;;;7386948;19;20007;-75
2023/11/17 03:05:39;;;;;;;6.07;1.80;;;11.50;99.70;;;;;;7383673;19;20090;-76
2023/11/17 03:08:08;;;;;;;11.48;1.50;;;11.50;99.90;;;;;;7384717;19;19999;-76
2023/11/17 03:10:37;;;;;;;6.50;2.40;;;11.50;99.80;;;;;;7384586;19;20013;-76
2023/11/17 03:13:06;;;;;;;4.55;2.20;;;11.50;99.80;;;;;;7384407;19;20260;-76
2023/11/17 03:15:36;;;;;;;3.90;1.70;;;11.50;99.80;;;;;;7406164;19;20035;-76
2023/11/17 03:18:09;;;;;;;3.40;1.73;;;11.50;99.80;;;;;;7388172;19;20034;-76
2023/11/17 03:20:38;;;;;;;2.00;1.42;;;11.50;99.70;;;;;;7390508;19;19999;-76
2023/11/17 03:23:06;;;;;;;7.20;1.77;;;11.50;99.60;;;;;;7390321;19;19998;-76
2023/11/17 03:25:39;;;;;;;8.25;1.55;;;11.50;99.70;;;;;;7391446;19;20027;-77
2023/11/17 03:28:13;;;;;;;7.57;2.17;;;11.40;99.40;;;;;;7392363;19;20388;-77
2023/11/17 03:30:44;;;;;;;9.95;1.90;;;11.40;99.50;;;;;;7405798;19;20023;-75
2023/11/17 03:33:15;;;;;;;5.22;1.95;;;11.40;99.60;;;;;;7404974;19;20013;-76
2023/11/17 03:35:44;;;;;;;11.73;5.55;;;11.40;99.80;;;;;;7383120;19;20006;-76
2023/11/17 03:38:13;;;;;;;7.32;3.20;;;11.50;99.80;;;;;;7383510;19;20002;-76
2023/11/17 03:40:46;;;;;;;3.67;1.60;;;11.50;99.60;;;;;;7383543;19;20387;-76
2023/11/17 03:43:17;;;;;;;12.35;2.00;;;11.50;99.60;;;;;;7383717;19;20019;-76
2023/11/17 03:45:48;;;;;;;6.68;1.45;;;11.50;99.50;;;;;;7383319;19;20118;-76
2023/11/17 03:48:22;;;;;;;3.17;2.00;;;11.50;99.40;;;;;;7404954;19;20011;-77
2023/11/17 03:50:51;;;;;;;3.50;1.70;;;11.40;99.50;;;;;;7382611;19;20039;-77
2023/11/17 03:53:20;;;;;;;7.60;2.17;;;11.40;99.50;;;;;;7381970;19;20059;-77
2023/11/17 03:55:49;;;;;;;6.07;1.98;;;11.40;99.60;;;;;;7384094;19;20235;-77
2023/11/17 03:58:19;;;;;;;10.73;1.92;;;11.40;99.80;;;;;;7383397;19;20404;-76
2023/11/17 04:00:49;;;;;;;13.52;2.28;;;11.40;99.90;;;;;;7386459;19;20381;-76
2023/11/17 04:03:20;;;;;;;6.80;1.85;;;11.40;99.90;;;;;;7406939;19;20424;-76
2023/11/17 04:05:49;;;;;;;8.30;2.08;;;11.40;99.90;;;;;;7381841;19;20009;-76
2023/11/17 04:08:17;;;;;;;10.02;1.98;;;11.30;99.90;;;;;;7382446;19;20003;-76
2023/11/17 04:10:46;;;;;;;18.88;2.20;;;11.40;99.90;;;;;;7383863;19;20058;-76
2023/11/17 04:13:17;;;;;;;9.65;2.90;;;11.40;99.90;;;;;;7382849;19;20010;-75
2023/11/17 04:15:46;;;;;;;4.93;2.17;;;11.40;99.90;;;;;;7382335;19;20023;-76
2023/11/17 04:18:15;;;;;;;5.63;2.35;;;11.40;99.90;;;;;;7403079;19;20138;-76
2023/11/17 04:20:48;;;;;;;7.43;2.35;;;11.50;99.90;;;;;;7380085;19;20386;-76
2023/11/17 04:23:16;;;;;;;9.95;2.35;;;11.50;99.90;;;;;;7381186;19;20068;-76
2023/11/17 04:25:46;;;;;;;6.55;2.50;;;11.50;99.80;;;;;;7380606;19;20090;-76
2023/11/17 04:28:15;;;;;;;2.97;1.92;;;11.50;99.80;;;;;;7381760;19;20011;-76
2023/11/17 04:30:44;;;;;;;7.30;2.38;;;11.50;99.70;;;;;;7381675;19;20098;-77
2023/11/17 04:33:12;;;;;;;8.98;2.28;;;11.50;99.60;;;;;;7403719;19;20102;-77
2023/11/17 04:35:41;;;;;;;5.03;2.20;;;11.50;99.60;;;;;;7380341;19;20027;-76
2023/11/17 04:38:13;;;;;;;6.45;1.92;;;11.40;99.70;;;;;;7381365;19;20019;-77
2023/11/17 04:40:42;;;;;;;10.80;2.67;;;11.40;99.70;;;;;;7380625;19;20038;-77
2023/11/17 04:43:11;;;;;;;5.15;2.30;;;11.40;99.80;;;;;;7381404;19;20058;-77
2023/11/17 04:45:43;;;;;;;10.98;2.03;;;11.40;99.80;;;;;;7403841;19;20226;-76
2023/11/17 04:48:12;;;;;;;5.53;2.03;;;11.40;99.80;;;;;;7380719;19;20010;-76
2023/11/17 04:50:41;;;;;;;3.75;1.92;;;11.40;99.80;;;;;;7380746;19;20005;-76
2023/11/17 04:53:12;;;;;;;4.82;2.05;;;11.40;99.80;;;;;;7380329;19;20006;-76
2023/11/17 04:55:44;;;;;;;2.05;1.60;;;11.50;99.90;;;;;;7383182;19;20009;-77
2023/11/17 04:58:13;;;;;;;3.33;2.08;;;11.50;99.80;;;;;;7380405;19;20003;-77
2023/11/17 05:00:43;;;;;;;5.90;1.73;;;11.50;99.80;;;;;;7395606;19;20010;-77
2023/11/17 05:03:12;;;;;;;9.00;1.92;;;11.50;99.80;;;;;;7406103;19;20002;-77
2023/11/17 05:05:42;;;;;;;3.72;2.38;;;11.50;99.80;;;;;;7378507;19;20006;-77
2023/11/17 05:08:16;;;;;;;13.25;3.13;;;11.50;99.80;;;;;;7379764;19;19998;-77
2023/11/17 05:10:45;;;;;;;11.60;2.83;;;11.50;99.90;;;;;;7380469;19;20279;-77
